createdAt,value
2023-04-24T00:01:07.847Z,8.90
2023-04-24T00:03:35.425Z,8.89
2023-04-24T00:06:03.179Z,8.90
2023-04-24T00:08:30.687Z,8.95
2023-04-24T00:10:57.555Z,9.01
2023-04-24T00:13:24.367Z,9.06
2023-04-24T00:15:51.023Z,9.09
2023-04-24T00:18:17.966Z,9.13
2023-04-24T00:20:44.907Z,9.17
2023-04-24T00:23:11.718Z,9.19
2023-04-24T00:25:38.770Z,9.19
2023-04-24T00:28:05.641Z,9.20
2023-04-24T00:30:32.470Z,9.21
2023-04-24T00:32:59.171Z,9.23
2023-04-24T00:35:25.876Z,9.21
2023-04-24T00:37:52.872Z,9.21
2023-04-24T00:40:19.696Z,9.19
2023-04-24T00:42:46.359Z,9.18
2023-04-24T00:45:13.509Z,9.17
2023-04-24T00:47:40.459Z,9.17
2023-04-24T00:50:07.816Z,9.16
2023-04-24T00:52:35.138Z,9.14
2023-04-24T00:55:01.809Z,9.13
2023-04-24T00:57:29.019Z,9.11
2023-04-24T00:59:55.723Z,9.10
2023-04-24T01:02:23.381Z,9.09
2023-04-24T01:04:51.236Z,9.09
2023-04-24T01:07:22.272Z,9.10
2023-04-24T01:09:52.593Z,9.10
2023-04-24T01:12:19.824Z,9.09
2023-04-24T01:14:46.501Z,9.09
2023-04-24T01:17:13.233Z,9.09
2023-04-24T01:19:40.676Z,9.09
2023-04-24T01:22:12.078Z,9.11
2023-04-24T01:24:39.339Z,9.12
2023-04-24T01:27:06.252Z,9.13
2023-04-24T01:29:33.237Z,9.13
2023-04-24T01:32:00.030Z,9.14
2023-04-24T01:34:27.030Z,9.15
2023-04-24T01:36:53.715Z,9.15
2023-04-24T01:39:21.140Z,9.16
2023-04-24T01:41:47.800Z,9.16
2023-04-24T01:44:14.465Z,9.17
2023-04-24T01:46:41.859Z,9.17
2023-04-24T01:49:08.584Z,9.18
2023-04-24T01:51:35.303Z,9.18
2023-04-24T01:54:03.587Z,9.17
2023-04-24T01:56:30.791Z,9.17
2023-04-24T01:58:57.684Z,9.18
2023-04-24T02:01:24.571Z,9.19
2023-04-24T02:03:51.428Z,9.21
2023-04-24T02:06:18.189Z,9.23
2023-04-24T02:08:44.939Z,9.24
2023-04-24T02:11:11.642Z,9.25
2023-04-24T02:13:38.452Z,9.26
2023-04-24T02:16:05.252Z,9.28
2023-04-24T02:18:32.661Z,9.28
2023-04-24T02:20:59.256Z,9.29
2023-04-24T02:23:27.588Z,9.30
2023-04-24T02:25:54.764Z,9.31
2023-04-24T02:28:22.025Z,9.33
2023-04-24T02:30:50.986Z,9.34
2023-04-24T02:33:17.713Z,9.34
2023-04-24T02:35:44.396Z,9.34
2023-04-24T02:38:11.295Z,9.35
2023-04-24T02:40:38.077Z,9.36
2023-04-24T02:43:05.016Z,9.36
2023-04-24T02:45:31.894Z,9.35
2023-04-24T02:47:58.747Z,9.35
2023-04-24T02:50:25.627Z,9.34
2023-04-24T02:52:52.410Z,9.33
2023-04-24T02:55:19.253Z,9.32
2023-04-24T02:57:46.064Z,9.31
2023-04-24T03:00:13.850Z,9.30
2023-04-24T03:02:43.124Z,9.29
2023-04-24T03:05:12.257Z,9.28
2023-04-24T03:07:38.974Z,9.25
2023-04-24T03:10:06.357Z,9.23
2023-04-24T03:12:33.364Z,9.20
2023-04-24T03:15:01.236Z,9.17
2023-04-24T03:17:28.324Z,9.13
2023-04-24T03:19:55.369Z,9.09
2023-04-24T03:22:22.064Z,9.08
2023-04-24T03:24:48.756Z,9.04
2023-04-24T03:27:16.969Z,9.03
2023-04-24T03:30:04.386Z,9.01
2023-04-24T03:32:41.656Z,9.03
2023-04-24T03:35:09.396Z,9.04
2023-04-24T03:37:36.427Z,9.08
2023-04-24T03:40:23.230Z,9.14
2023-04-24T03:42:50.046Z,9.21
2023-04-24T03:45:16.827Z,9.26
2023-04-24T03:47:45.945Z,9.30
2023-04-24T03:50:13.123Z,9.35
2023-04-24T03:52:41.645Z,9.43
2023-04-24T03:55:09.383Z,9.54
2023-04-24T03:57:40.849Z,9.66
2023-04-24T04:00:13.236Z,9.78
2023-04-24T04:02:44.515Z,9.91
2023-04-24T04:05:11.657Z,10.03
2023-04-24T04:07:38.927Z,10.17
2023-04-24T04:10:07.500Z,10.32
2023-04-24T04:12:36.719Z,10.45
2023-04-24T04:15:04.028Z,10.57
2023-04-24T04:17:31.484Z,10.68
2023-04-24T04:19:59.820Z,10.77
2023-04-24T04:22:26.568Z,10.85
2023-04-24T04:24:53.923Z,10.91
2023-04-24T04:27:21.930Z,10.97
2023-04-24T04:29:54.470Z,11.02
2023-04-24T04:32:22.061Z,11.07
2023-04-24T04:34:50.046Z,11.06
2023-04-24T04:37:17.749Z,11.04
2023-04-24T04:39:54.092Z,11.05
2023-04-24T04:42:24.289Z,11.10
2023-04-24T04:44:51.184Z,11.21
2023-04-24T04:47:22.296Z,11.34
2023-04-24T04:49:49.151Z,11.46
2023-04-24T04:52:19.410Z,11.51
2023-04-24T04:54:48.121Z,11.49
2023-04-24T04:57:14.739Z,11.47
2023-04-24T04:59:42.308Z,11.50
2023-04-24T05:02:12.305Z,11.52
2023-04-24T05:04:39.500Z,11.53
2023-04-24T05:07:06.741Z,11.54
2023-04-24T05:09:34.038Z,11.56
2023-04-24T05:12:04.039Z,11.58
2023-04-24T05:14:33.871Z,11.62
2023-04-24T05:17:01.416Z,11.66
2023-04-24T05:19:28.988Z,11.72
2023-04-24T05:21:56.055Z,11.79
2023-04-24T05:24:23.489Z,11.85
2023-04-24T05:27:11.638Z,11.92
2023-04-24T05:29:40.673Z,11.97
2023-04-24T05:32:08.330Z,12.02
2023-04-24T05:34:35.916Z,12.05
2023-04-24T05:37:03.760Z,12.10
2023-04-24T05:39:30.518Z,12.19
2023-04-24T05:41:58.654Z,12.31
2023-04-24T05:44:26.127Z,12.46
2023-04-24T05:46:53.069Z,12.62
2023-04-24T05:49:19.907Z,12.82
2023-04-24T05:51:46.915Z,13.03
2023-04-24T05:54:13.963Z,13.27
2023-04-24T05:56:43.053Z,13.47
2023-04-24T05:59:11.163Z,13.69
2023-04-24T06:01:38.580Z,13.89
2023-04-24T06:04:15.336Z,14.11
2023-04-24T06:06:42.378Z,14.30
2023-04-24T06:09:09.316Z,14.50
2023-04-24T06:11:36.218Z,14.70
2023-04-24T06:14:03.698Z,14.93
2023-04-24T06:16:42.229Z,15.18
2023-04-24T06:19:16.625Z,15.36
2023-04-24T06:21:43.515Z,15.55
2023-04-24T06:24:10.327Z,15.68
2023-04-24T06:26:37.097Z,15.85
2023-04-24T06:29:04.088Z,16.00
2023-04-24T06:31:31.180Z,16.16
2023-04-24T06:33:58.021Z,16.30
2023-04-24T06:36:24.699Z,16.45
2023-04-24T06:38:51.412Z,16.57
2023-04-24T06:41:18.131Z,16.62
2023-04-24T06:43:45.375Z,16.66
2023-04-24T06:46:12.583Z,16.72
2023-04-24T06:48:40.022Z,16.80
2023-04-24T06:51:07.320Z,16.88
2023-04-24T06:53:34.500Z,16.98
2023-04-24T06:56:01.436Z,17.03
2023-04-24T06:58:28.657Z,17.08
2023-04-24T07:00:55.467Z,17.15
2023-04-24T07:03:22.506Z,17.25
2023-04-24T07:05:49.702Z,17.30
2023-04-24T07:08:17.980Z,17.35
2023-04-24T07:10:45.350Z,17.49
2023-04-24T07:13:12.297Z,17.55
2023-04-24T07:15:40.349Z,17.55
2023-04-24T07:18:07.043Z,17.61
2023-04-24T07:20:34.567Z,17.68
2023-04-24T07:23:01.456Z,17.75
2023-04-24T07:25:28.467Z,17.88
2023-04-24T07:27:55.251Z,17.96
2023-04-24T07:30:21.974Z,18.03
2023-04-24T07:32:48.615Z,18.04
2023-04-24T07:35:15.387Z,18.04
2023-04-24T07:37:46.121Z,18.09
2023-04-24T07:40:13.546Z,18.26
2023-04-24T07:42:40.933Z,18.34
2023-04-24T07:45:07.793Z,18.34
2023-04-24T07:47:35.393Z,18.22
2023-04-24T07:50:02.232Z,18.25
2023-04-24T07:52:29.300Z,18.36
2023-04-24T07:54:58.738Z,18.53
2023-04-24T07:57:25.712Z,18.60
2023-04-24T07:59:52.455Z,18.72
2023-04-24T08:02:19.241Z,18.79
2023-04-24T08:04:46.083Z,18.73
2023-04-24T08:07:13.434Z,18.76
2023-04-24T08:09:40.546Z,18.78
2023-04-24T08:12:07.226Z,18.78
2023-04-24T08:14:34.449Z,18.84
2023-04-24T08:17:01.963Z,18.89
2023-04-24T08:19:28.647Z,18.87
2023-04-24T08:21:55.521Z,18.91
2023-04-24T08:24:22.688Z,18.94
2023-04-24T08:26:54.324Z,18.98
2023-04-24T08:29:21.127Z,18.99
2023-04-24T08:31:47.845Z,19.01
2023-04-24T08:34:14.465Z,19.05
2023-04-24T08:36:47.225Z,19.19
2023-04-24T08:39:15.290Z,19.25
2023-04-24T08:41:43.462Z,19.27
2023-04-24T08:44:10.786Z,19.32
2023-04-24T08:46:37.864Z,19.31
2023-04-24T08:49:04.673Z,19.28
2023-04-24T08:51:32.421Z,19.26
2023-04-24T08:53:59.076Z,19.32
2023-04-24T08:56:25.774Z,19.48
2023-04-24T08:58:52.480Z,19.60
2023-04-24T09:01:20.178Z,19.43
2023-04-24T09:03:49.328Z,19.33
2023-04-24T09:06:18.086Z,19.34
2023-04-24T09:08:45.224Z,19.34
2023-04-24T09:11:11.934Z,19.13
2023-04-24T09:13:38.553Z,18.95
2023-04-24T09:16:05.366Z,18.75
2023-04-24T09:18:32.234Z,18.62
2023-04-24T09:21:03.968Z,18.58
2023-04-24T09:23:31.547Z,18.53
2023-04-24T09:26:00.499Z,18.48
2023-04-24T09:28:30.549Z,18.41
2023-04-24T09:31:08.777Z,18.23
2023-04-24T09:33:35.944Z,18.22
2023-04-24T09:36:03.108Z,18.28
2023-04-24T09:38:34.445Z,18.26
2023-04-24T09:41:04.169Z,18.17
2023-04-24T09:43:31.554Z,18.13
2023-04-24T09:45:59.671Z,18.19
2023-04-24T09:48:38.190Z,18.28
2023-04-24T09:51:07.514Z,18.44
2023-04-24T09:53:34.200Z,18.48
2023-04-24T09:56:10.757Z,18.36
2023-04-24T09:58:37.550Z,18.27
2023-04-24T10:01:04.453Z,18.28
2023-04-24T10:03:32.026Z,18.28
2023-04-24T10:06:00.228Z,18.27
2023-04-24T10:08:27.877Z,18.20
2023-04-24T10:10:54.499Z,18.11
2023-04-24T10:13:22.183Z,18.04
2023-04-24T10:15:48.855Z,17.99
2023-04-24T10:18:15.654Z,17.89
2023-04-24T10:20:42.360Z,17.83
2023-04-24T10:23:11.044Z,17.86
2023-04-24T10:25:37.822Z,17.94
2023-04-24T10:28:05.453Z,18.02
2023-04-24T10:30:35.538Z,18.09
2023-04-24T10:33:04.095Z,18.08
2023-04-24T10:35:31.338Z,18.09
2023-04-24T10:38:03.536Z,18.24
2023-04-24T10:40:35.415Z,18.45
2023-04-24T10:43:08.287Z,18.59
2023-04-24T10:45:35.181Z,18.65
2023-04-24T10:48:07.759Z,18.67
2023-04-24T10:50:48.577Z,18.70
2023-04-24T10:53:22.197Z,18.62
2023-04-24T10:55:51.857Z,18.56
2023-04-24T10:58:28.657Z,18.56
2023-04-24T11:00:59.579Z,18.51
2023-04-24T11:03:28.852Z,18.49
2023-04-24T11:06:08.778Z,18.56
2023-04-24T11:08:45.870Z,18.51
2023-04-24T11:11:13.971Z,18.39
2023-04-24T11:13:56.315Z,18.33
2023-04-24T11:16:38.933Z,18.41
2023-04-24T11:19:09.471Z,18.50
2023-04-24T11:21:48.658Z,18.59
2023-04-24T11:24:38.496Z,18.63
2023-04-24T11:27:16.967Z,18.58
2023-04-24T11:30:05.486Z,18.19
2023-04-24T11:32:48.483Z,17.81
2023-04-24T11:35:16.836Z,17.84
2023-04-24T11:40:23.371Z,17.86
2023-04-24T11:42:52.273Z,17.52
2023-04-24T11:45:22.744Z,17.31
2023-04-24T11:47:50.601Z,17.13
2023-04-24T11:50:19.103Z,16.95
2023-04-24T11:52:47.035Z,16.74
2023-04-24T11:55:19.851Z,16.64
2023-04-24T11:57:48.296Z,16.63
2023-04-24T12:00:20.953Z,16.72
2023-04-24T12:02:49.162Z,16.83
2023-04-24T12:05:27.449Z,16.92
2023-04-24T12:07:54.740Z,17.02
2023-04-24T12:10:22.295Z,17.11
2023-04-24T12:12:51.706Z,17.21
2023-04-24T12:15:19.516Z,17.30
2023-04-24T12:17:46.190Z,17.37
2023-04-24T12:20:13.463Z,17.40
2023-04-24T12:22:45.987Z,17.40
2023-04-24T12:25:12.781Z,17.43
2023-04-24T12:27:39.866Z,17.44
2023-04-24T12:30:14.086Z,17.46
2023-04-24T12:32:46.299Z,17.51
2023-04-24T12:35:13.223Z,17.56
2023-04-24T12:37:44.660Z,17.58
2023-04-24T12:40:13.712Z,17.57
2023-04-24T12:42:50.720Z,17.53
2023-04-24T12:45:18.678Z,17.49
2023-04-24T12:47:45.966Z,17.52
2023-04-24T12:50:13.917Z,17.56
2023-04-24T12:52:41.087Z,17.48
2023-04-24T12:55:10.690Z,17.33
2023-04-24T12:57:38.054Z,17.29
2023-04-24T13:00:06.071Z,17.33
2023-04-24T13:02:33.384Z,17.40
2023-04-24T13:05:00.460Z,17.37
2023-04-24T13:07:27.369Z,17.23
2023-04-24T13:09:55.083Z,17.10
2023-04-24T13:12:23.427Z,17.01
2023-04-24T13:14:50.062Z,16.95
2023-04-24T13:17:17.342Z,16.87
2023-04-24T13:19:44.248Z,16.74
2023-04-24T13:22:12.126Z,16.66
2023-04-24T13:24:41.160Z,16.56
2023-04-24T13:27:07.986Z,16.48
2023-04-24T13:29:34.822Z,16.40
2023-04-24T13:32:01.602Z,16.36
2023-04-24T13:34:28.759Z,16.29
2023-04-24T13:36:56.603Z,16.28
2023-04-24T13:39:23.953Z,16.31
2023-04-24T13:41:51.214Z,16.33
2023-04-24T13:44:18.989Z,16.41
2023-04-24T13:46:46.552Z,16.49
2023-04-24T13:49:14.001Z,16.56
2023-04-24T13:51:41.990Z,16.60
2023-04-24T13:54:08.764Z,16.61
2023-04-24T13:56:35.805Z,16.59
2023-04-24T13:59:02.578Z,16.57
2023-04-24T14:01:29.292Z,16.54
2023-04-24T14:03:56.211Z,16.50
2023-04-24T14:06:23.953Z,16.54
2023-04-24T14:08:50.737Z,16.57
2023-04-24T14:11:18.064Z,16.57
2023-04-24T14:13:45.620Z,16.57
2023-04-24T14:16:13.040Z,16.55
2023-04-24T14:18:39.787Z,16.54
2023-04-24T14:21:06.653Z,16.52
2023-04-24T14:23:33.975Z,16.50
2023-04-24T14:26:00.777Z,16.50
2023-04-24T14:28:27.896Z,16.52
2023-04-24T14:30:54.838Z,16.57
2023-04-24T14:33:21.731Z,16.63
2023-04-24T14:35:48.381Z,16.69
2023-04-24T14:38:15.732Z,16.76
2023-04-24T14:41:04.732Z,16.81
2023-04-24T14:43:30.634Z,16.88
2023-04-24T14:45:57.244Z,16.94
2023-04-24T14:48:23.992Z,16.99
2023-04-24T14:50:50.907Z,17.04
2023-04-24T14:53:17.958Z,17.09
2023-04-24T14:55:45.030Z,17.09
2023-04-24T14:58:11.789Z,17.09
2023-04-24T15:00:38.641Z,17.09
2023-04-24T15:03:05.719Z,17.07
2023-04-24T15:05:33.819Z,17.06
2023-04-24T15:08:00.899Z,17.07
2023-04-24T15:10:27.709Z,17.07
2023-04-24T15:12:54.477Z,17.07
2023-04-24T15:15:21.141Z,17.09
2023-04-24T15:17:47.935Z,17.11
2023-04-24T15:20:15.020Z,17.09
2023-04-24T15:22:41.941Z,17.05
2023-04-24T15:25:08.937Z,17.03
2023-04-24T15:27:43.020Z,17.04
2023-04-24T15:30:10.960Z,17.04
2023-04-24T15:32:38.598Z,17.04
2023-04-24T15:35:09.054Z,17.04
2023-04-24T15:37:38.546Z,17.03
2023-04-24T15:40:07.393Z,17.04
2023-04-24T15:42:34.209Z,17.03
2023-04-24T15:45:01.241Z,17.01
2023-04-24T15:47:28.211Z,16.97
2023-04-24T15:49:55.070Z,16.89
2023-04-24T15:52:21.904Z,16.86
2023-04-24T15:54:48.524Z,16.85
2023-04-24T15:57:15.282Z,16.82
2023-04-24T15:59:42.064Z,16.76
2023-04-24T16:02:09.222Z,16.74
2023-04-24T16:04:36.656Z,16.73
2023-04-24T16:07:03.535Z,16.69
2023-04-24T16:09:30.518Z,16.62
2023-04-24T16:11:57.588Z,16.57
2023-04-24T16:14:24.391Z,16.53
2023-04-24T16:16:51.043Z,16.49
2023-04-24T16:19:17.777Z,16.48
2023-04-24T16:21:44.465Z,16.43
2023-04-24T16:24:11.212Z,16.40
2023-04-24T16:26:38.719Z,16.36
2023-04-24T16:29:05.577Z,16.31
2023-04-24T16:31:33.141Z,16.25
2023-04-24T16:34:00.223Z,16.21
2023-04-24T16:36:28.105Z,16.12
2023-04-24T16:38:55.022Z,16.04
2023-04-24T16:41:21.763Z,15.98
2023-04-24T16:43:48.458Z,15.89
2023-04-24T16:46:15.365Z,15.82
2023-04-24T16:48:42.217Z,15.72
2023-04-24T16:51:08.954Z,15.62
2023-04-24T16:53:35.792Z,15.53
2023-04-24T16:56:03.045Z,15.47
2023-04-24T16:58:30.442Z,15.40
2023-04-24T17:00:57.386Z,15.34
2023-04-24T17:03:24.349Z,15.27
2023-04-24T17:05:51.184Z,15.21
2023-04-24T17:08:19.995Z,15.16
2023-04-24T17:10:46.623Z,15.11
2023-04-24T17:13:13.882Z,15.07
2023-04-24T17:15:44.032Z,15.03
2023-04-24T17:18:11.152Z,14.99
2023-04-24T17:20:38.240Z,14.95
2023-04-24T17:23:06.047Z,14.90
2023-04-24T17:25:33.119Z,14.84
2023-04-24T17:28:00.300Z,14.77
2023-04-24T17:30:27.214Z,14.69
2023-04-24T17:32:54.308Z,14.62
2023-04-24T17:35:22.803Z,14.54
2023-04-24T17:37:49.841Z,14.46
2023-04-24T17:40:16.634Z,14.39
2023-04-24T17:42:43.345Z,14.31
2023-04-24T17:45:10.701Z,14.22
2023-04-24T17:47:37.341Z,14.15
2023-04-24T17:50:05.176Z,14.05
2023-04-24T17:52:32.060Z,13.96
2023-04-24T17:54:58.680Z,13.88
2023-04-24T17:57:25.333Z,13.78
2023-04-24T17:59:52.172Z,13.70
2023-04-24T18:02:18.997Z,13.63
2023-04-24T18:04:45.836Z,13.58
2023-04-24T18:07:12.802Z,13.50
2023-04-24T18:09:40.730Z,13.44
2023-04-24T18:12:07.479Z,13.37
2023-04-24T18:14:35.147Z,13.29
2023-04-24T18:17:01.753Z,13.20
2023-04-24T18:19:28.537Z,13.15
2023-04-24T18:21:55.133Z,13.11
2023-04-24T18:24:22.530Z,13.08
2023-04-24T18:26:49.296Z,13.06
2023-04-24T18:29:16.444Z,13.02
2023-04-24T18:31:43.201Z,12.99
2023-04-24T18:34:09.810Z,12.95
2023-04-24T18:36:36.498Z,12.90
2023-04-24T18:39:03.330Z,12.86
2023-04-24T18:41:30.289Z,12.81
2023-04-24T18:43:58.548Z,12.77
2023-04-24T18:46:25.406Z,12.73
2023-04-24T18:48:52.213Z,12.71
2023-04-24T18:51:18.849Z,12.68
2023-04-24T18:53:45.570Z,12.65
2023-04-24T18:56:12.615Z,12.62
2023-04-24T18:58:43.757Z,12.58
2023-04-24T19:01:10.642Z,12.53
2023-04-24T19:03:37.550Z,12.47
2023-04-24T19:06:04.789Z,12.42
2023-04-24T19:08:31.531Z,12.37
2023-04-24T19:10:59.041Z,12.31
2023-04-24T19:13:25.943Z,12.27
2023-04-24T19:15:52.583Z,12.22
2023-04-24T19:18:19.715Z,12.17
2023-04-24T19:20:46.352Z,12.12
2023-04-24T19:23:12.957Z,12.07
2023-04-24T19:25:39.756Z,12.01
2023-04-24T19:28:07.074Z,11.92
2023-04-24T19:30:34.819Z,11.80
2023-04-24T19:33:01.844Z,11.66
2023-04-24T19:35:28.789Z,11.54
2023-04-24T19:37:55.502Z,11.45
2023-04-24T19:40:22.283Z,11.39
2023-04-24T19:42:49.204Z,11.35
2023-04-24T19:45:15.882Z,11.29
2023-04-24T19:47:42.687Z,11.25
2023-04-24T19:50:09.667Z,11.24
2023-04-24T19:52:37.089Z,11.22
2023-04-24T19:55:04.258Z,11.20
2023-04-24T19:57:31.512Z,11.19
2023-04-24T19:59:58.174Z,11.23
2023-04-24T20:02:25.065Z,11.26
2023-04-24T20:04:52.274Z,11.26
2023-04-24T20:07:19.552Z,11.24
2023-04-24T20:09:46.310Z,11.22
2023-04-24T20:12:12.984Z,11.18
2023-04-24T20:14:39.876Z,11.16
2023-04-24T20:17:07.201Z,11.15
2023-04-24T20:19:34.684Z,11.14
2023-04-24T20:22:01.429Z,11.13
2023-04-24T20:24:28.404Z,11.13
2023-04-24T20:26:56.513Z,11.11
2023-04-24T20:29:23.273Z,11.10
2023-04-24T20:31:50.048Z,11.08
2023-04-24T20:34:16.934Z,11.06
2023-04-24T20:36:46.984Z,11.03
2023-04-24T20:39:16.905Z,11.00
2023-04-24T20:41:45.911Z,10.93
2023-04-24T20:44:13.295Z,10.65
2023-04-24T20:46:40.713Z,10.36
2023-04-24T20:49:08.173Z,10.12
2023-04-24T20:51:36.378Z,9.94
2023-04-24T20:54:03.880Z,9.85
2023-04-24T20:56:32.135Z,9.85
2023-04-24T20:59:00.315Z,9.89
2023-04-24T21:01:29.721Z,9.93
2023-04-24T21:03:56.915Z,9.95
2023-04-24T21:06:24.301Z,9.99
2023-04-24T21:08:51.778Z,10.02
2023-04-24T21:11:19.424Z,10.03
2023-04-24T21:13:46.958Z,10.01
2023-04-24T21:16:14.625Z,9.96
2023-04-24T21:18:41.889Z,9.90
2023-04-24T21:21:09.219Z,9.83
2023-04-24T21:23:36.320Z,9.79
2023-04-24T21:26:03.752Z,9.76
2023-04-24T21:28:30.890Z,9.73
2023-04-24T21:30:57.828Z,9.74
2023-04-24T21:33:24.792Z,9.73
2023-04-24T21:35:51.867Z,9.72
2023-04-24T21:38:23.617Z,9.71
2023-04-24T21:40:51.602Z,9.70
2023-04-24T21:43:23.398Z,9.69
2023-04-24T21:45:56.163Z,9.69
2023-04-24T21:48:23.308Z,9.68
2023-04-24T21:50:50.984Z,9.69
2023-04-24T21:53:18.721Z,9.70
2023-04-24T21:55:45.772Z,9.70
2023-04-24T21:58:20.086Z,9.71
2023-04-24T22:00:48.685Z,9.72
2023-04-24T22:03:18.696Z,9.73
2023-04-24T22:05:46.440Z,9.72
2023-04-24T22:08:13.379Z,9.74
2023-04-24T22:10:40.466Z,9.74
2023-04-24T22:13:07.193Z,9.73
2023-04-24T22:15:34.164Z,9.68
2023-04-24T22:18:00.986Z,9.59
2023-04-24T22:20:28.933Z,9.52
2023-04-24T22:22:55.810Z,9.49
2023-04-24T22:25:22.627Z,9.47
2023-04-24T22:27:50.050Z,9.44
2023-04-24T22:30:16.802Z,9.40
2023-04-24T22:32:43.729Z,9.37
2023-04-24T22:35:10.686Z,9.35
2023-04-24T22:37:37.460Z,9.32
2023-04-24T22:40:07.588Z,9.33
2023-04-24T22:42:34.850Z,9.32
2023-04-24T22:45:01.509Z,9.30
2023-04-24T22:47:28.537Z,9.28
2023-04-24T22:49:57.134Z,9.26
2023-04-24T22:52:24.094Z,9.23
2023-04-24T22:54:51.561Z,9.21
2023-04-24T22:57:18.236Z,9.16
2023-04-24T22:59:45.078Z,9.13
2023-04-24T23:02:11.964Z,9.10
2023-04-24T23:04:38.908Z,9.07
2023-04-24T23:07:05.575Z,9.06
2023-04-24T23:09:33.083Z,9.07
2023-04-24T23:12:00.682Z,9.05
2023-04-24T23:14:27.406Z,9.05
2023-04-24T23:16:54.116Z,9.05
2023-04-24T23:19:21.198Z,9.06
2023-04-24T23:21:48.546Z,9.03
2023-04-24T23:24:15.475Z,8.95
2023-04-24T23:26:42.236Z,8.86
2023-04-24T23:29:08.949Z,8.77
2023-04-24T23:31:35.673Z,8.70
2023-04-24T23:34:02.516Z,8.65
2023-04-24T23:36:29.967Z,8.62
2023-04-24T23:38:56.635Z,8.63
2023-04-24T23:41:23.208Z,8.64
2023-04-24T23:43:50.101Z,8.67
2023-04-24T23:46:17.563Z,8.69
2023-04-24T23:48:44.424Z,8.72
2023-04-24T23:51:11.117Z,8.73
2023-04-24T23:53:37.967Z,8.73
2023-04-24T23:56:04.931Z,8.73
2023-04-24T23:58:31.672Z,8.69
